Strona główna
METAR-TAF:

METAR-TAF

Lotnisko :

Nancy, Francja

Szerokość geograficzna: 48-41N, Długość geograficzna: 006-13E, wysokość: 225 m

Aktualna obserwacja pogody

Raport powstał 34 minut temu, godzina 11:30 UTC
Wiatr 12 kt od południowo-południowy zachód, zmienny między południe i zachodnio-południowy zachód
Temperatura 12°C
Wilgotność 82%
Ciśnienie 1020 hPa
Widzialność 10 km lub więcej
Przerywane chmury na wysokości 1300 ft
Zachmurzenie całkowite na wysokości 5000 ft

METAR: LFSN 241130Z AUTO 21012KT 180V240 9999 BKN013 OVC050 12/09 Q1020

czas: 13:04 (12:04 UTC)


TAF: brakujący

Obserwacja i prognoza pogody dla ponad 4000 lotnisk (raport METAR i TAF).

Dostępne stacje oznaczono żółtymi i czerwonymi punktami na mapie.

Najedź kursorem aby zobaczyć nazwę stacji.

Kliknij aby zobaczyć obserwacje i prognozy pogody.

Aby zmienić mapę: kliknij na zielony przycisk z czarnym krzyżykiem, aby powiększyć; na zielony przycisk z myślnikiem, aby pomniejszyć; na zielone strzałki, aby przejść do map sąsiednich.


METAR-TAF: